Time;durP1;ratioP1;P1;durP2;ratioP2;P2;SDS_P1;SDS_P2;PMS_P1;PMS_P2;Temp;Humidity;BMP_temperature;BMP_pressure;BME280_temperature;BME280_humidity;BME280_pressure;Samples;Min_cycle;Max_cycle;Signal;HPM_P1;HPM_P2
2021/12/02 00:02:21;;;;;;;46.38;28.60;;;;;;;0.93;77.22;94784.63;5011299;28;20025;-71
2021/12/02 00:04:47;;;;;;;43.00;29.48;;;;;;;1.22;78.08;94852.34;5011516;28;20033;-72
2021/12/02 00:07:12;;;;;;;45.13;29.60;;;;;;;1.20;78.71;94853.28;5010957;28;20145;-70
2021/12/02 00:09:38;;;;;;;41.97;29.00;;;;;;;1.04;79.50;94850.34;5011565;28;20052;-72
2021/12/02 00:12:06;;;;;;;47.75;30.05;;;;;;;1.22;79.35;94861.69;5011646;28;20033;-70
2021/12/02 00:14:40;;;;;;;48.08;31.50;;;;;;;1.24;79.38;94878.53;5011625;28;20095;-71
2021/12/02 00:17:26;;;;;;;44.20;28.90;;;;;;;1.37;78.78;94845.16;5011504;28;20034;-69
2021/12/02 00:23:22;;;;;;;50.65;29.10;;;;;;;1.43;78.50;94858.50;5010221;28;20043;-69
2021/12/02 00:25:51;;;;;;;31.35;20.52;;;;;;;1.33;78.14;94857.13;5011232;28;20038;-71
2021/12/02 00:28:17;;;;;;;45.60;27.77;;;;;;;1.33;78.64;94874.91;5010738;28;20030;-70
2021/12/02 00:30:43;;;;;;;38.22;26.13;;;;;;;1.22;79.27;94884.53;5010506;28;20026;-72
2021/12/02 00:33:10;;;;;;;38.58;25.27;;;;;;;1.21;79.15;94883.69;5010883;28;20029;-70
2021/12/02 00:35:36;;;;;;;35.13;24.60;;;;;;;1.04;79.41;94884.19;5010820;28;20026;-70
2021/12/02 00:38:01;;;;;;;40.95;26.50;;;;;;;1.08;79.55;94880.69;5010301;28;20054;-70
2021/12/02 00:40:27;;;;;;;35.63;23.52;;;;;;;0.97;79.56;94861.53;5010051;28;20037;-71
2021/12/02 00:42:53;;;;;;;39.95;26.52;;;;;;;0.61;79.98;94810.91;5009917;28;20032;-70
2021/12/02 00:45:19;;;;;;;35.72;23.10;;;;;;;1.21;78.69;94878.59;5010861;28;20026;-71
2021/12/02 00:47:46;;;;;;;36.25;22.92;;;;;;;1.21;78.38;94882.88;5010604;28;20033;-70
2021/12/02 00:50:11;;;;;;;32.17;20.83;;;;;;;1.03;78.88;94863.91;5010772;28;20148;-71
2021/12/02 00:52:40;;;;;;;34.13;21.92;;;;;;;1.36;78.52;94882.44;5010282;28;20096;-71
2021/12/02 00:55:06;;;;;;;34.10;22.55;;;;;;;1.33;77.77;94856.28;5009863;28;20117;-71
2021/12/02 00:57:32;;;;;;;34.65;23.00;;;;;;;1.14;77.79;94835.66;5010340;28;20030;-70
2021/12/02 00:59:59;;;;;;;35.88;22.35;;;;;;;1.07;77.59;94838.38;5010130;28;20370;-71
2021/12/02 01:02:25;;;;;;;32.63;21.90;;;;;;;1.00;78.08;94852.13;5010302;28;20424;-71
2021/12/02 01:04:51;;;;;;;34.78;21.95;;;;;;;0.75;78.86;94841.00;5009862;28;20022;-70
2021/12/02 01:07:17;;;;;;;37.33;24.67;;;;;;;0.82;79.60;94880.56;5009454;28;20456;-71
2021/12/02 01:09:46;;;;;;;34.00;22.58;;;;;;;0.70;80.47;94863.97;5009939;28;20109;-72
2021/12/02 01:12:12;;;;;;;37.70;22.63;;;;;;;0.86;80.23;94872.81;5009936;28;20038;-70
2021/12/02 01:14:38;;;;;;;40.58;23.38;;;;;;;0.95;80.65;94873.44;5009897;28;20029;-72
2021/12/02 01:17:03;;;;;;;41.95;24.63;;;;;;;0.85;79.79;94847.47;5009973;28;20058;-69
2021/12/02 01:19:29;;;;;;;38.28;24.77;;;;;;;1.00;79.78;94881.75;5009700;28;20048;-71
2021/12/02 01:21:55;;;;;;;45.83;27.23;;;;;;;1.02;80.20;94885.13;5009769;28;20033;-70
2021/12/02 01:24:23;;;;;;;35.72;23.95;;;;;;;1.17;79.33;94879.59;5009629;28;20033;-71
2021/12/02 01:26:53;;;;;;;38.92;22.83;;;;;;;1.33;78.85;94886.75;5009353;28;20413;-70
2021/12/02 01:29:22;;;;;;;35.78;20.98;;;;;;;0.38;78.41;94733.75;5009251;28;20038;-69
2021/12/02 01:31:57;;;;;;;31.23;20.23;;;;;;;1.41;76.97;94889.91;5009033;28;20034;-69
2021/12/02 01:34:27;;;;;;;35.03;20.48;;;;;;;1.09;77.63;94873.91;5009011;28;20097;-70
2021/12/02 01:36:54;;;;;;;32.65;20.75;;;;;;;1.05;78.05;94882.47;5008262;28;20061;-70
2021/12/02 01:39:20;;;;;;;34.75;20.55;;;;;;;0.85;78.90;94868.63;5009125;28;20093;-70
2021/12/02 01:41:49;;;;;;;34.58;21.77;;;;;;;0.97;79.36;94885.22;5008805;28;20056;-70
2021/12/02 01:44:19;;;;;;;30.15;20.45;;;;;;;1.08;79.02;94879.84;5008852;28;20037;-69
2021/12/02 01:46:47;;;;;;;30.15;20.33;;;;;;;1.24;77.91;94870.09;5008442;28;20187;-69
2021/12/02 01:49:13;;;;;;;31.20;18.98;;;;;;;1.10;77.27;94857.78;5008753;28;20025;-70
2021/12/02 01:51:46;;;;;;;29.83;19.83;;;;;;;0.99;78.04;94860.63;5008761;28;20107;-69
2021/12/02 01:54:17;;;;;;;31.70;22.00;;;;;;;0.80;79.10;94856.94;5008471;28;20532;-72
2021/12/02 01:56:49;;;;;;;30.88;19.50;;;;;;;0.83;79.70;94857.66;5008598;28;20065;-70
2021/12/02 01:59:25;;;;;;;28.23;20.00;;;;;;;0.60;80.10;94825.31;5008862;28;20084;-67
2021/12/02 02:01:56;;;;;;;29.63;20.63;;;;;;;0.98;79.30;94850.50;5008503;28;20049;-70
2021/12/02 02:04:23;;;;;;;24.95;14.90;;;;;;;1.00;78.49;94839.44;5008659;28;20160;-70
2021/12/02 02:07:00;;;;;;;29.88;21.30;;;;;;;0.89;79.09;94847.34;5007674;28;20057;-70
2021/12/02 02:09:29;;;;;;;29.58;19.02;;;;;;;0.62;79.03;94797.34;5008658;28;20084;-71
2021/12/02 02:11:56;;;;;;;25.77;16.92;;;;;;;0.73;78.79;94801.25;5008721;28;20115;-70
2021/12/02 02:14:25;;;;;;;32.15;18.85;;;;;;;0.79;79.05;94834.94;5008729;28;20053;-69
2021/12/02 02:16:50;;;;;;;26.90;17.52;;;;;;;0.76;79.09;94835.06;5008467;28;20037;-69
2021/12/02 02:19:16;;;;;;;29.02;17.33;;;;;;;0.44;79.19;94789.38;5008104;28;20502;-70
2021/12/02 02:21:43;;;;;;;29.80;18.33;;;;;;;0.25;80.03;94786.50;5008597;28;20030;-70
2021/12/02 02:24:13;;;;;;;28.48;17.27;;;;;;;0.35;80.50;94820.91;5008341;28;20033;-70
2021/12/02 02:26:39;;;;;;;26.70;17.67;;;;;;;0.39;81.45;94843.66;5007850;28;20053;-69
2021/12/02 02:29:07;;;;;;;24.75;18.33;;;;;;;0.49;81.21;94850.13;5008196;28;20073;-70
2021/12/02 02:31:36;;;;;;;29.80;20.38;;;;;;;0.13;80.94;94771.59;5008017;28;20121;-70
2021/12/02 02:34:01;;;;;;;31.67;19.15;;;;;;;0.60;80.65;94837.19;5008659;28;20022;-71
2021/12/02 02:36:30;;;;;;;26.75;17.80;;;;;;;0.76;80.16;94827.44;5008210;28;20034;-70
2021/12/02 02:38:58;;;;;;;29.55;18.20;;;;;;;0.68;80.16;94837.81;5007970;28;20030;-70
2021/12/02 02:41:33;;;;;;;30.08;18.65;;;;;;;0.43;79.65;94781.81;5008075;28;20051;-70
2021/12/02 02:43:59;;;;;;;26.70;17.25;;;;;;;0.71;79.34;94815.69;5009566;28;20037;-69
2021/12/02 02:46:28;;;;;;;28.13;17.83;;;;;;;0.86;78.84;94842.34;5009278;28;20057;-69
2021/12/02 02:48:55;;;;;;;27.80;17.67;;;;;;;0.76;79.45;94851.13;5008826;28;20258;-70
2021/12/02 02:51:21;;;;;;;27.65;16.80;;;;;;;0.69;79.09;94850.44;5008128;28;20069;-70
2021/12/02 02:53:55;;;;;;;30.92;18.50;;;;;;;0.40;79.75;94815.69;5007573;28;20057;-70
2021/12/02 02:56:25;;;;;;;26.02;17.27;;;;;;;-0.62;79.49;94645.97;5008152;28;20025;-71
2021/12/02 02:59:01;;;;;;;26.83;15.68;;;;;;;0.83;79.13;94847.50;5007610;28;20787;-70
2021/12/02 03:01:37;;;;;;;27.75;18.10;;;;;;;1.02;78.25;94832.59;5008452;28;20030;-70
2021/12/02 03:09:18;;;;;;;25.67;16.40;;;;;;;0.54;79.29;94808.56;5007882;28;20428;-71
2021/12/02 03:11:50;;;;;;;25.65;17.58;;;;;;;0.82;79.30;94827.25;5008118;28;20072;-70
2021/12/02 03:14:21;;;;;;;25.73;16.33;;;;;;;1.06;78.04;94830.81;5007962;28;20032;-72
2021/12/02 03:16:47;;;;;;;25.27;14.95;;;;;;;0.78;77.38;94785.91;5008236;28;20034;-69
2021/12/02 03:19:15;;;;;;;28.48;17.90;;;;;;;0.92;77.90;94821.06;5007124;28;20468;-69
2021/12/02 03:21:42;;;;;;;26.55;17.73;;;;;;;0.83;78.13;94827.22;5007489;28;20029;-70
2021/12/02 03:24:08;;;;;;;22.48;15.70;;;;;;;0.74;78.89;94822.41;5007781;28;20034;-69
2021/12/02 03:26:34;;;;;;;23.02;16.20;;;;;;;0.67;79.20;94814.13;5007586;28;20065;-69
2021/12/02 03:29:01;;;;;;;27.17;17.58;;;;;;;0.58;79.00;94806.75;5007631;28;20064;-69
2021/12/02 03:31:26;;;;;;;31.27;18.42;;;;;;;0.57;79.93;94832.19;5007052;28;20096;-70
2021/12/02 03:33:53;;;;;;;27.45;17.00;;;;;;;0.51;80.08;94825.59;5007559;28;20477;-70
2021/12/02 03:36:19;;;;;;;27.00;18.25;;;;;;;0.44;79.37;94788.53;5007350;28;20033;-70
2021/12/02 03:38:45;;;;;;;20.98;15.45;;;;;;;0.81;78.44;94812.91;5007697;28;20067;-70
2021/12/02 03:41:11;;;;;;;24.83;16.58;;;;;;;0.38;78.64;94755.72;5007442;28;20033;-73
2021/12/02 03:43:38;;;;;;;22.88;15.70;;;;;;;0.70;78.43;94811.47;5007156;28;20470;-70
2021/12/02 03:46:04;;;;;;;24.42;15.38;;;;;;;0.46;79.12;94782.56;5007800;28;20033;-70
2021/12/02 03:48:30;;;;;;;26.60;16.48;;;;;;;0.07;79.67;94756.56;5007550;28;20049;-69
2021/12/02 03:50:56;;;;;;;26.00;16.70;;;;;;;0.36;80.64;94829.31;5007664;28;20057;-71
2021/12/02 03:53:21;;;;;;;26.95;17.23;;;;;;;0.47;80.51;94824.81;5005979;28;20439;-70
2021/12/02 03:55:47;;;;;;;22.50;15.95;;;;;;;-0.01;79.80;94711.13;5005720;28;20141;-69
2021/12/02 03:58:13;;;;;;;24.17;16.17;;;;;;;0.62;79.98;94813.41;5009586;28;20122;-70
2021/12/02 04:00:39;;;;;;;26.02;17.20;;;;;;;0.51;80.49;94801.03;5011200;28;20030;-69
2021/12/02 04:03:05;;;;;;;32.38;20.13;;;;;;;0.54;80.50;94805.16;5010900;28;20068;-69
2021/12/02 04:05:30;;;;;;;48.85;30.67;;;;;;;0.35;80.34;94805.69;5010612;28;20461;-69
2021/12/02 04:07:55;;;;;;;62.15;38.28;;;;;;;0.32;79.30;94810.00;5010583;28;20101;-70
2021/12/02 04:10:22;;;;;;;69.47;42.53;;;;;;;0.16;78.82;94812.09;5010897;28;20040;-70
2021/12/02 04:13:13;;;;;;;63.63;40.42;;;;;;;0.03;79.08;94803.97;5010744;28;20088;-69
2021/12/02 04:15:39;;;;;;;66.57;38.28;;;;;;;-0.25;79.33;94783.56;5010479;28;20523;-69
2021/12/02 04:18:05;;;;;;;71.90;39.13;;;;;;;-0.22;79.25;94811.34;5010388;28;20061;-69
2021/12/02 04:20:31;;;;;;;65.20;40.08;;;;;;;-0.45;80.28;94794.19;5010625;28;20506;-69
2021/12/02 04:22:57;;;;;;;61.83;36.83;;;;;;;-0.64;80.21;94774.34;5010757;28;20547;-72
2021/12/02 04:25:23;;;;;;;54.03;35.53;;;;;;;-0.30;80.53;94792.97;5010464;28;20069;-69
2021/12/02 04:27:51;;;;;;;59.13;36.28;;;;;;;-0.53;79.58;94758.88;5011120;28;20022;-69
2021/12/02 04:30:20;;;;;;;56.92;33.60;;;;;;;-1.06;79.60;94698.53;5010491;28;20044;-69
2021/12/02 04:32:45;;;;;;;57.25;34.45;;;;;;;-0.25;80.42;94812.25;5010637;28;20470;-69
2021/12/02 04:35:11;;;;;;;60.15;37.22;;;;;;;-0.49;80.16;94752.03;5010088;28;20030;-69
2021/12/02 04:37:38;;;;;;;57.80;35.33;;;;;;;-0.21;80.24;94793.59;5010215;28;20495;-70
2021/12/02 04:40:06;;;;;;;62.22;35.80;;;;;;;-0.35;80.74;94780.41;5010542;28;20062;-70
2021/12/02 04:42:31;;;;;;;60.28;37.72;;;;;;;-0.29;81.13;94775.19;5009943;28;20030;-68
2021/12/02 04:44:57;;;;;;;63.28;39.10;;;;;;;-0.29;80.97;94785.34;5010274;28;20644;-68
2021/12/02 04:47:23;;;;;;;57.60;38.50;;;;;;;-0.93;81.26;94643.38;5009773;28;20053;-71
2021/12/02 04:49:48;;;;;;;56.63;36.38;;;;;;;0.07;80.48;94782.75;5010399;28;20049;-70
2021/12/02 04:52:14;;;;;;;60.53;34.13;;;;;;;0.09;79.55;94768.31;5008608;28;20032;-70
2021/12/02 04:54:40;;;;;;;46.83;31.17;;;;;;;0.05;79.71;94738.00;5009590;28;20036;-69
2021/12/02 04:57:06;;;;;;;49.00;28.13;;;;;;;0.30;79.07;94774.53;5009909;28;20025;-68
2021/12/02 04:59:31;;;;;;;49.45;30.45;;;;;;;0.30;78.88;94794.00;5010246;28;20040;-67
2021/12/02 05:01:57;;;;;;;44.33;30.70;;;;;;;-0.20;79.92;94721.75;5008267;28;20524;-70
2021/12/02 05:04:22;;;;;;;50.70;31.77;;;;;;;0.03;80.59;94777.78;5010248;28;20076;-70
2021/12/02 05:06:48;;;;;;;49.38;31.02;;;;;;;0.09;81.15;94777.66;5009313;28;20045;-70
2021/12/02 05:09:13;;;;;;;51.78;31.65;;;;;;;-0.09;81.06;94738.38;5009956;28;20116;-68
2021/12/02 05:11:39;;;;;;;55.03;32.50;;;;;;;0.13;81.25;94771.59;5010119;28;20076;-68
2021/12/02 05:14:06;;;;;;;59.20;33.40;;;;;;;-0.37;81.06;94681.63;5010040;28;20482;-69
2021/12/02 05:16:31;;;;;;;52.30;32.28;;;;;;;0.16;81.33;94772.38;5009946;28;20026;-70
2021/12/02 05:18:57;;;;;;;49.75;32.67;;;;;;;-0.40;80.48;94698.63;5009033;28;20133;-71
2021/12/02 05:21:23;;;;;;;51.88;31.52;;;;;;;-0.02;80.80;94776.22;5009491;28;20040;-69
2021/12/02 05:23:53;;;;;;;50.75;33.70;;;;;;;-0.09;80.23;94779.78;5009795;28;20030;-70
2021/12/02 05:26:23;;;;;;;53.50;31.52;;;;;;;-0.10;80.32;94779.81;5009891;28;20025;-69
2021/12/02 05:28:50;;;;;;;45.90;32.05;;;;;;;-0.16;79.76;94772.34;5009269;28;20337;-70
2021/12/02 05:31:15;;;;;;;50.20;32.42;;;;;;;-0.41;79.96;94733.28;5009135;28;20056;-71
2021/12/02 05:33:41;;;;;;;51.78;31.75;;;;;;;-0.29;79.55;94749.88;5009693;28;20022;-69
2021/12/02 05:36:06;;;;;;;49.28;31.25;;;;;;;-0.16;79.16;94747.84;5009347;28;20022;-70
2021/12/02 05:38:32;;;;;;;51.42;31.83;;;;;;;0.03;79.37;94772.72;5009224;28;20085;-69
2021/12/02 05:40:57;;;;;;;58.28;32.17;;;;;;;0.10;79.19;94777.59;4995644;28;20412;-70
2021/12/02 05:43:23;;;;;;;50.13;31.65;;;;;;;0.17;79.03;94766.41;4989253;28;20132;-70
2021/12/02 05:45:48;;;;;;;50.05;31.23;;;;;;;0.26;78.32;94772.13;4989897;28;20015;-71
2021/12/02 05:48:14;;;;;;;52.45;33.95;;;;;;;0.27;78.34;94771.25;4989796;28;20109;-70
2021/12/02 05:50:39;;;;;;;45.78;31.50;;;;;;;0.10;77.49;94746.31;5000169;28;20044;-69
2021/12/02 05:53:05;;;;;;;43.47;28.50;;;;;;;0.27;77.34;94771.25;5009212;28;20030;-68
2021/12/02 05:55:31;;;;;;;46.08;29.58;;;;;;;0.30;76.98;94777.06;5008692;28;20066;-70
2021/12/02 05:57:56;;;;;;;47.72;31.55;;;;;;;0.03;77.28;94758.34;5009374;28;20022;-69
2021/12/02 06:00:22;;;;;;;46.42;28.40;;;;;;;0.01;78.34;94775.28;4990119;28;20084;-69
2021/12/02 06:02:47;;;;;;;52.83;31.00;;;;;;;-0.31;79.03;94712.75;5004922;28;20137;-70
2021/12/02 06:05:31;;;;;;;45.97;31.38;;;;;;;0.03;79.16;94781.16;5005802;28;20481;-70
2021/12/02 06:07:58;;;;;;;54.13;34.40;;;;;;;-0.47;78.86;94661.66;5003844;28;20516;-70
2021/12/02 06:10:25;;;;;;;50.92;31.13;;;;;;;-0.10;78.66;94736.72;5005770;28;20516;-69
2021/12/02 06:12:50;;;;;;;54.53;33.13;;;;;;;0.07;78.67;94739.66;5004836;28;20054;-70
2021/12/02 06:15:16;;;;;;;45.10;31.30;;;;;;;0.30;78.48;94773.72;5005323;28;20819;-68
2021/12/02 06:17:44;;;;;;;49.33;32.10;;;;;;;0.36;78.80;94771.84;5004718;28;20045;-70
2021/12/02 06:20:11;;;;;;;52.83;34.25;;;;;;;0.47;77.79;94781.69;5004797;28;20026;-70
2021/12/02 06:22:37;;;;;;;52.38;34.13;;;;;;;0.56;77.83;94757.78;5004594;28;20065;-66
2021/12/02 06:27:40;;;;;;;51.65;35.20;;;;;;;0.80;76.74;94775.69;5004998;28;20033;-65
2021/12/02 06:30:06;;;;;;;52.00;33.53;;;;;;;0.99;76.10;94781.09;5004724;28;20041;-67
2021/12/02 06:32:32;;;;;;;55.28;34.95;;;;;;;1.07;75.65;94763.91;5004683;28;20029;-67
2021/12/02 06:34:57;;;;;;;48.78;34.90;;;;;;;1.15;75.72;94771.28;5005131;28;20040;-67
2021/12/02 06:37:23;;;;;;;50.20;33.13;;;;;;;1.30;75.67;94786.06;5004926;28;20045;-67
2021/12/02 06:39:50;;;;;;;52.60;33.97;;;;;;;1.41;75.24;94783.19;5000571;28;20524;-65
2021/12/02 06:42:16;;;;;;;50.97;34.33;;;;;;;1.51;74.68;94791.34;5005078;28;20045;-65
2021/12/02 06:44:42;;;;;;;51.45;33.35;;;;;;;1.65;73.61;94772.25;5004109;28;20030;-66
2021/12/02 06:47:08;;;;;;;54.35;35.85;;;;;;;1.02;74.30;94698.03;5005293;28;20044;-66
2021/12/02 06:49:34;;;;;;;50.28;36.15;;;;;;;1.74;73.84;94780.44;5004911;28;20496;-67
2021/12/02 06:52:00;;;;;;;48.10;31.48;;;;;;;1.72;73.52;94750.03;5005142;28;20076;-70
2021/12/02 06:54:26;;;;;;;46.10;28.50;;;;;;;1.52;72.40;94688.84;5002623;28;20102;-66
2021/12/02 06:56:52;;;;;;;58.03;31.40;;;;;;;1.59;72.72;94686.06;5000325;28;20489;-67
2021/12/02 06:59:18;;;;;;;44.03;29.80;;;;;;;1.91;73.27;94762.94;5004199;28;20123;-68
2021/12/02 07:01:45;;;;;;;44.45;29.58;;;;;;;2.04;73.05;94781.19;5004975;28;20026;-65
2021/12/02 07:04:11;;;;;;;46.15;30.42;;;;;;;1.80;72.98;94749.75;5004430;28;20037;-68
2021/12/02 07:06:38;;;;;;;44.22;31.65;;;;;;;1.94;72.78;94784.91;5004327;28;20030;-68
2021/12/02 07:09:04;;;;;;;45.63;28.52;;;;;;;1.90;72.55;94771.44;5002841;28;20114;-65
2021/12/02 07:11:30;;;;;;;38.53;28.27;;;;;;;1.84;72.49;94769.13;5001884;28;20042;-64
2021/12/02 07:14:00;;;;;;;43.65;28.17;;;;;;;1.88;72.32;94775.75;5006314;28;20030;-66
2021/12/02 07:16:26;;;;;;;42.93;28.67;;;;;;;1.79;72.82;94781.97;5004554;28;20034;-64
2021/12/02 07:18:57;;;;;;;41.72;29.15;;;;;;;1.81;72.92;94776.84;5005419;28;20115;-66
2021/12/02 07:21:24;;;;;;;39.67;27.92;;;;;;;1.65;72.76;94754.44;5006294;28;20732;-65
2021/12/02 07:23:50;;;;;;;38.55;28.55;;;;;;;1.44;72.69;94717.03;5005577;28;20038;-66
2021/12/02 07:26:16;;;;;;;37.20;25.85;;;;;;;1.45;72.40;94700.91;5004222;28;20026;-67
2021/12/02 07:28:43;;;;;;;37.30;26.00;;;;;;;1.99;72.62;94762.69;5008182;28;20033;-66
2021/12/02 07:31:10;;;;;;;40.08;25.88;;;;;;;2.14;72.57;94776.59;5008462;28;20026;-66
2021/12/02 07:33:38;;;;;;;34.92;26.55;;;;;;;2.44;70.87;94761.97;5011477;28;20030;-65
2021/12/02 07:36:05;;;;;;;39.40;27.50;;;;;;;2.45;71.00;94767.91;5011217;28;20036;-65
2021/12/02 07:38:32;;;;;;;39.83;29.30;;;;;;;2.53;71.23;94771.03;5007467;28;20053;-66
2021/12/02 07:41:03;;;;;;;52.30;36.22;;;;;;;1.90;70.83;94659.56;5010620;28;20038;-67
2021/12/02 07:43:32;;;;;;;46.13;33.90;;;;;;;2.08;70.43;94687.78;5010978;28;20073;-66
2021/12/02 07:45:58;;;;;;;47.88;33.40;;;;;;;2.51;70.48;94732.03;5011479;28;20128;-66
2021/12/02 07:48:25;;;;;;;61.63;38.83;;;;;;;2.50;70.40;94707.50;5026211;28;20116;-66
2021/12/02 07:50:54;;;;;;;52.80;33.50;;;;;;;2.78;70.19;94744.69;5011078;28;20036;-65
2021/12/02 07:53:20;;;;;;;46.97;35.30;;;;;;;2.96;70.14;94758.44;5009696;28;20084;-67
2021/12/02 07:55:49;;;;;;;61.92;42.05;;;;;;;2.91;69.94;94733.16;5010975;28;20073;-70
2021/12/02 07:58:16;;;;;;;50.35;35.67;;;;;;;3.11;69.42;94758.69;5011077;28;20077;-65
2021/12/02 08:00:42;;;;;;;46.40;34.13;;;;;;;3.32;69.11;94781.69;5011095;28;20036;-65
2021/12/02 08:03:10;;;;;;;46.13;33.25;;;;;;;3.43;68.40;94774.47;5010717;28;20029;-65
2021/12/02 08:05:35;;;;;;;48.10;31.40;;;;;;;3.54;68.53;94755.34;5010237;28;20445;-66
2021/12/02 08:08:01;;;;;;;46.65;33.78;;;;;;;3.78;67.99;94773.97;5010175;28;20184;-66
2021/12/02 08:10:28;;;;;;;43.50;32.60;;;;;;;3.94;67.70;94751.22;5010908;28;20033;-67
2021/12/02 08:12:54;;;;;;;44.08;31.33;;;;;;;6.99;61.60;94747.97;5010980;28;20034;-66
2021/12/02 08:15:24;;;;;;;41.45;29.85;;;;;;;10.59;47.54;94695.50;5010784;28;20045;-66
2021/12/02 08:17:52;;;;;;;37.45;26.35;;;;;;;13.13;40.60;94702.03;5010637;28;20044;-64
2021/12/02 08:20:19;;;;;;;26.17;17.08;;;;;;;14.12;35.97;94667.34;5011296;28;20030;-66
2021/12/02 08:22:46;;;;;;;25.48;18.25;;;;;;;15.60;33.31;94654.75;5003242;28;20026;-65
2021/12/02 08:25:12;;;;;;;28.23;17.75;;;;;;;16.11;31.81;94644.22;4999459;28;20041;-66
2021/12/02 08:27:40;;;;;;;23.02;17.48;;;;;;;17.12;29.75;94724.38;5010848;28;20477;-65
2021/12/02 08:30:07;;;;;;;23.92;18.40;;;;;;;16.82;31.07;94728.84;5010614;28;20108;-66
2021/12/02 08:32:35;;;;;;;27.75;22.73;;;;;;;18.40;28.75;94704.28;5010564;28;20105;-67
2021/12/02 08:35:00;;;;;;;30.92;23.60;;;;;;;19.30;27.47;94712.69;5010787;28;20053;-66
2021/12/02 08:37:29;;;;;;;27.13;22.80;;;;;;;19.50;26.05;94667.97;5004498;28;20069;-67
2021/12/02 08:39:57;;;;;;;30.42;25.23;;;;;;;19.90;25.68;94711.72;4991053;28;20046;-66
2021/12/02 08:42:24;;;;;;;32.08;24.17;;;;;;;20.63;24.43;94657.72;4990052;28;20038;-66
2021/12/02 08:44:50;;;;;;;34.55;23.55;;;;;;;20.89;24.63;94688.09;4990633;28;20026;-66
2021/12/02 08:47:19;;;;;;;26.42;18.20;;;;;;;22.10;22.49;94671.09;5001332;28;20036;-66
2021/12/02 08:49:44;;;;;;;34.10;22.65;;;;;;;23.03;21.67;94666.47;5010430;28;20058;-68
2021/12/02 08:52:10;;;;;;;31.27;20.15;;;;;;;23.43;20.80;94645.13;5010202;28;20064;-66
2021/12/02 08:54:36;;;;;;;22.50;19.02;;;;;;;24.08;19.73;94674.19;5009994;28;20467;-67
2021/12/02 08:57:02;;;;;;;19.88;15.20;;;;;;;24.48;19.35;94690.31;5009688;28;20057;-67
2021/12/02 08:59:28;;;;;;;21.00;17.15;;;;;;;23.23;20.74;94655.44;4991845;28;20060;-65
2021/12/02 09:01:53;;;;;;;17.05;14.05;;;;;;;23.82;19.71;94657.94;5009810;28;20029;-67
2021/12/02 09:04:18;;;;;;;19.45;13.73;;;;;;;24.69;18.77;94676.31;5010089;28;20119;-67
2021/12/02 09:06:44;;;;;;;22.52;17.80;;;;;;;25.78;17.60;94662.47;5009086;28;20049;-67
2021/12/02 09:09:09;;;;;;;20.95;17.65;;;;;;;26.42;17.25;94631.25;4991682;28;20121;-68
2021/12/02 09:11:35;;;;;;;21.60;15.70;;;;;;;27.61;15.99;94641.75;5021879;28;20031;-66
2021/12/02 09:14:04;;;;;;;23.65;16.30;;;;;;;27.85;15.51;94645.50;4990140;28;20133;-67
2021/12/02 09:16:30;;;;;;;23.80;15.73;;;;;;;28.40;14.85;94635.16;4989916;28;20092;-66
2021/12/02 09:18:57;;;;;;;26.30;19.77;;;;;;;28.72;15.23;94621.00;4989658;28;20030;-67
2021/12/02 09:21:24;;;;;;;27.77;20.42;;;;;;;28.70;14.95;94629.19;4992238;28;20045;-68
2021/12/02 09:23:49;;;;;;;27.90;21.95;;;;;;;28.82;15.05;94642.53;5006791;28;20140;-66
2021/12/02 09:26:15;;;;;;;36.17;27.20;;;;;;;27.09;16.06;94636.47;5009161;28;20101;-67
2021/12/02 09:28:51;;;;;;;34.42;26.85;;;;;;;27.41;16.13;94602.94;5009517;28;20030;-65
2021/12/02 09:31:17;;;;;;;32.75;27.08;;;;;;;27.67;15.78;94627.66;5008499;28;20413;-67
2021/12/02 09:33:42;;;;;;;32.65;24.00;;;;;;;27.48;16.15;94642.63;5008807;28;20044;-70
2021/12/02 09:36:08;;;;;;;23.90;19.95;;;;;;;28.23;15.33;94650.75;5009171;28;20036;-67
2021/12/02 09:38:33;;;;;;;30.45;19.55;;;;;;;28.39;15.04;94640.66;4994428;28;20082;-67
2021/12/02 09:41:02;;;;;;;24.00;19.77;;;;;;;28.88;14.13;94640.88;4989709;28;20569;-67
2021/12/02 09:43:27;;;;;;;27.58;19.63;;;;;;;28.66;14.68;94621.88;4997562;28;20544;-67
2021/12/02 09:45:52;;;;;;;27.55;20.83;;;;;;;28.55;14.41;94575.66;5009001;28;20030;-67
2021/12/02 09:48:18;;;;;;;27.25;21.08;;;;;;;28.52;14.09;94616.69;5008773;28;20037;-67
2021/12/02 09:50:53;;;;;;;27.52;22.02;;;;;;;28.43;14.41;94623.28;5009398;28;20449;-67
2021/12/02 09:53:24;;;;;;;26.35;20.40;;;;;;;28.61;14.60;94625.19;5008659;28;20022;-67
2021/12/02 09:58:28;;;;;;;20.25;15.68;;;;;;;28.79;14.04;94600.53;5009067;28;20033;-66
2021/12/02 10:01:08;;;;;;;18.00;15.38;;;;;;;29.01;14.03;94603.56;5008728;28;20049;-66
2021/12/02 10:03:37;;;;;;;17.40;14.30;;;;;;;28.95;14.12;94613.22;5009106;28;20037;-67
2021/12/02 10:06:07;;;;;;;15.70;13.23;;;;;;;29.06;13.71;94598.41;5007904;28;20065;-66
2021/12/02 10:08:41;;;;;;;18.10;14.33;;;;;;;29.02;14.42;94593.75;5008209;28;20129;-66
2021/12/02 10:11:09;;;;;;;17.30;13.15;;;;;;;29.14;13.70;94594.66;5008843;28;20060;-69
2021/12/02 10:13:50;;;;;;;17.30;13.07;;;;;;;29.10;13.77;94575.69;5008562;28;20408;-68
2021/12/02 10:16:26;;;;;;;23.13;14.82;;;;;;;29.83;13.67;94584.59;5008023;28;20037;-66
2021/12/02 10:21:32;;;;;;;25.05;14.70;;;;;;;29.21;13.57;94570.69;5008817;28;20038;-68
2021/12/02 10:24:10;;;;;;;16.75;11.55;;;;;;;29.24;13.79;94579.03;5007847;28;20100;-67
2021/12/02 10:26:49;;;;;;;15.25;12.13;;;;;;;30.32;13.05;94575.63;5008197;28;20109;-67
2021/12/02 10:29:30;;;;;;;49.17;14.88;;;;;;;30.20;13.28;94570.31;4987201;28;20108;-66
2021/12/02 10:32:09;;;;;;;18.02;12.38;;;;;;;30.04;13.26;94572.59;4988204;28;20486;-68
2021/12/02 10:34:54;;;;;;;16.27;12.20;;;;;;;30.56;12.95;94563.16;4988692;28;20105;-66
2021/12/02 10:37:41;;;;;;;21.20;13.10;;;;;;;30.79;12.73;94551.69;4991562;28;20076;-67
2021/12/02 10:40:11;;;;;;;14.10;10.77;;;;;;;30.67;12.79;94551.72;5007979;28;20049;-67
2021/12/02 10:42:47;;;;;;;14.63;11.43;;;;;;;31.20;12.45;94549.06;5007428;28;20164;-65
2021/12/02 10:45:23;;;;;;;18.80;13.05;;;;;;;30.91;12.39;94556.97;5007938;28;20469;-66
2021/12/02 10:47:50;;;;;;;20.27;12.57;;;;;;;30.90;12.75;94524.25;5006398;28;20818;-67
2021/12/02 10:50:17;;;;;;;23.50;13.32;;;;;;;30.98;12.74;94541.72;5007381;28;20022;-67
2021/12/02 10:52:42;;;;;;;19.90;11.57;;;;;;;30.66;12.90;94533.31;5000340;28;20135;-66
2021/12/02 10:55:18;;;;;;;15.13;11.45;;;;;;;30.73;12.74;94528.66;5003130;28;20518;-68
2021/12/02 10:57:52;;;;;;;15.48;11.02;;;;;;;30.87;12.40;94487.44;4988331;28;20088;-68
2021/12/02 11:00:24;;;;;;;11.65;9.55;;;;;;;31.23;11.87;94517.44;5001071;28;20137;-67
2021/12/02 11:02:53;;;;;;;13.48;10.55;;;;;;;31.43;11.90;94513.53;5007930;28;20033;-70
2021/12/02 11:05:32;;;;;;;24.65;13.23;;;;;;;31.51;12.25;94513.97;5007588;28;20092;-65
2021/12/02 11:08:05;;;;;;;11.95;10.55;;;;;;;31.43;12.40;94500.22;5002066;28;20034;-68
2021/12/02 11:10:33;;;;;;;16.10;11.05;;;;;;;30.87;12.63;94503.41;4996108;28;20038;-66
2021/12/02 11:12:59;;;;;;;13.68;10.13;;;;;;;30.32;13.13;94490.53;5009035;28;20030;-68
2021/12/02 11:15:27;;;;;;;16.33;12.52;;;;;;;31.18;12.79;94496.06;5006833;28;20515;-66
2021/12/02 11:17:57;;;;;;;15.13;11.35;;;;;;;31.56;12.58;94489.28;5008324;28;20030;-66
2021/12/02 11:20:44;;;;;;;15.95;11.70;;;;;;;31.30;12.42;94483.50;5008029;28;20042;-67
2021/12/02 11:23:14;;;;;;;14.18;11.38;;;;;;;31.26;12.45;94474.38;5008015;28;20034;-68
2021/12/02 11:25:53;;;;;;;21.88;15.70;;;;;;;31.25;12.65;94470.06;5008434;28;20034;-68
2021/12/02 11:28:22;;;;;;;16.73;12.70;;;;;;;31.18;12.33;94485.41;5008004;28;20034;-66
2021/12/02 11:30:48;;;;;;;22.00;14.80;;;;;;;30.67;12.94;94487.06;5007916;28;20053;-68
2021/12/02 11:33:18;;;;;;;17.63;13.30;;;;;;;30.70;12.37;94471.41;5008194;28;20145;-67
2021/12/02 11:35:44;;;;;;;16.48;14.65;;;;;;;30.77;12.80;94468.63;5008502;28;20558;-68
2021/12/02 11:38:21;;;;;;;21.60;15.93;;;;;;;29.65;13.46;94425.22;5008366;28;20476;-69
2021/12/02 11:40:50;;;;;;;21.35;17.45;;;;;;;29.28;14.44;94451.94;5009738;28;20025;-68
2021/12/02 11:43:23;;;;;;;19.50;14.93;;;;;;;29.80;13.85;94468.13;5005838;28;20026;-70